createdAt,value
2023-10-20T00:02:21.091Z,97245.66
2023-10-20T00:04:52.520Z,97254.38
2023-10-20T00:07:22.726Z,97250.84
2023-10-20T00:10:12.604Z,97246.44
2023-10-20T00:12:42.025Z,97249.00
2023-10-20T00:15:15.510Z,97248.09
2023-10-20T00:17:44.853Z,97241.94
2023-10-20T00:20:15.508Z,97230.47
2023-10-20T00:22:44.291Z,97237.47
2023-10-20T00:25:13.614Z,97230.44
2023-10-20T00:27:42.814Z,97224.28
2023-10-20T00:30:13.044Z,97218.09
2023-10-20T00:32:42.631Z,97214.59
2023-10-20T00:35:15.081Z,97223.38
2023-10-20T00:37:45.579Z,97218.94
2023-10-20T00:40:15.023Z,97214.50
2023-10-20T00:42:44.314Z,97210.09
2023-10-20T00:45:13.645Z,97207.38
2023-10-20T00:47:42.976Z,97204.75
2023-10-20T00:50:14.552Z,97195.97
2023-10-20T00:52:50.822Z,97202.09
2023-10-20T00:55:22.368Z,97182.69
2023-10-20T00:57:52.467Z,97174.78
2023-10-20T01:00:23.652Z,97168.59
2023-10-20T01:02:55.171Z,97161.47
2023-10-20T01:05:24.812Z,97157.09
2023-10-20T01:07:55.266Z,97150.91
2023-10-20T01:10:25.019Z,97138.63
2023-10-20T01:12:54.293Z,97137.63
2023-10-20T01:15:24.584Z,97135.09
2023-10-20T01:17:53.906Z,97142.06
2023-10-20T01:20:24.537Z,97135.84
2023-10-20T01:22:55.398Z,97124.44
2023-10-20T01:25:25.709Z,97127.94
2023-10-20T01:27:54.570Z,97118.25
2023-10-20T01:30:24.078Z,97119.09
2023-10-20T01:32:53.721Z,97115.53
2023-10-20T01:35:23.052Z,97115.53
2023-10-20T01:37:52.232Z,97118.16
2023-10-20T01:40:21.370Z,97118.16
2023-10-20T01:42:51.688Z,97111.97
2023-10-20T01:45:20.541Z,97107.56
2023-10-20T01:47:49.327Z,97108.41
2023-10-20T01:50:20.005Z,97111.03
2023-10-20T01:52:49.146Z,97104.81
2023-10-20T01:55:18.081Z,97099.53
2023-10-20T01:57:47.193Z,97096.00
2023-10-20T02:00:18.346Z,97074.03
2023-10-20T02:02:47.754Z,97083.66
2023-10-20T02:05:17.029Z,97081.00
2023-10-20T02:07:45.724Z,97070.44
2023-10-20T02:10:16.296Z,97073.94
2023-10-20T02:12:45.474Z,97079.22
2023-10-20T02:15:15.104Z,97069.59
2023-10-20T02:17:45.524Z,97072.25
2023-10-20T02:20:16.825Z,97069.59
2023-10-20T02:22:46.080Z,97060.75
2023-10-20T02:25:17.151Z,97055.47
2023-10-20T02:27:46.602Z,97045.75
2023-10-20T02:30:17.197Z,97027.38
2023-10-20T02:32:47.473Z,97022.09
2023-10-20T02:35:16.470Z,97026.44
2023-10-20T02:37:45.297Z,97015.88
2023-10-20T02:40:14.145Z,97012.38
2023-10-20T02:42:44.956Z,97012.38
2023-10-20T02:45:13.928Z,96995.69
2023-10-20T02:47:42.757Z,96992.09
2023-10-20T02:50:13.589Z,96992.97
2023-10-20T02:52:43.770Z,96977.06
2023-10-20T02:55:13.576Z,96965.72
2023-10-20T02:57:42.506Z,96966.56
2023-10-20T03:00:19.284Z,96956.88
2023-10-20T03:02:49.897Z,96951.59
2023-10-20T03:05:20.470Z,96951.59
2023-10-20T03:07:49.296Z,96950.72
2023-10-20T03:10:18.701Z,96941.91
2023-10-20T03:12:47.481Z,96932.19
2023-10-20T03:15:16.782Z,96930.50
2023-10-20T03:17:45.946Z,96917.28
2023-10-20T03:20:19.157Z,96896.97
2023-10-20T03:22:51.348Z,96883.81
2023-10-20T03:25:20.683Z,96885.63
2023-10-20T03:27:49.824Z,96885.63
2023-10-20T03:30:19.516Z,96889.09
2023-10-20T03:32:49.796Z,96894.38
2023-10-20T03:35:19.566Z,96900.50
2023-10-20T03:37:48.594Z,96892.59
2023-10-20T03:40:19.254Z,96894.31
2023-10-20T03:42:50.007Z,96888.16
2023-10-20T03:45:19.071Z,96883.66
2023-10-20T03:47:50.659Z,96861.69
2023-10-20T03:50:19.887Z,96869.63
2023-10-20T03:52:50.005Z,96886.31
2023-10-20T03:55:21.799Z,96881.03
2023-10-20T03:57:50.969Z,96872.25
2023-10-20T04:00:22.299Z,96848.44
2023-10-20T04:02:53.269Z,96827.31
2023-10-20T04:05:22.564Z,96829.00
2023-10-20T04:07:51.647Z,96828.16
2023-10-20T04:10:22.742Z,96826.44
2023-10-20T04:12:51.747Z,96823.78
2023-10-20T04:15:27.153Z,96819.41
2023-10-20T04:17:57.985Z,96816.75
2023-10-20T04:20:29.249Z,96820.25
2023-10-20T04:23:01.185Z,96800.91
2023-10-20T04:25:34.609Z,96801.78
2023-10-20T04:28:13.748Z,96811.38
2023-10-20T04:31:00.630Z,96800.91
2023-10-20T04:33:46.981Z,96798.13
2023-10-20T04:36:33.001Z,96797.28
2023-10-20T04:39:19.745Z,96796.31
2023-10-20T04:41:56.957Z,96757.69
2023-10-20T04:44:45.557Z,96740.94
2023-10-20T04:47:31.502Z,96729.56
2023-10-20T04:50:14.123Z,96729.47
2023-10-20T04:52:56.794Z,96724.19
2023-10-20T04:55:57.719Z,96719.84
2023-10-20T04:58:36.174Z,96706.75
2023-10-20T05:01:16.206Z,96710.28
2023-10-20T05:03:48.142Z,96705.97
2023-10-20T05:06:27.784Z,96695.41
2023-10-20T05:08:57.508Z,96680.50
2023-10-20T05:11:26.319Z,96669.94
2023-10-20T05:13:56.467Z,96674.34
2023-10-20T05:16:27.470Z,96673.50
2023-10-20T05:18:57.072Z,96669.16
2023-10-20T05:21:26.689Z,96670.09
2023-10-20T05:23:55.356Z,96663.13
2023-10-20T05:26:25.018Z,96659.69
2023-10-20T05:28:53.664Z,96670.25
2023-10-20T05:31:26.794Z,96656.28
2023-10-20T05:33:56.024Z,96654.59
2023-10-20T05:36:24.751Z,96648.47
2023-10-20T05:38:53.645Z,96645.88
2023-10-20T05:41:23.048Z,96628.34
2023-10-20T05:43:53.983Z,96628.34
2023-10-20T05:46:23.098Z,96626.63
2023-10-20T05:48:53.382Z,96631.06
2023-10-20T05:51:22.792Z,96632.84
2023-10-20T05:53:51.612Z,96638.31
2023-10-20T05:56:20.449Z,96654.13
2023-10-20T05:58:49.105Z,96656.78
2023-10-20T06:01:19.684Z,96654.19
2023-10-20T06:03:48.613Z,96640.16
2023-10-20T06:06:18.689Z,96646.34
2023-10-20T06:08:47.403Z,96634.09
2023-10-20T06:11:16.160Z,96633.25
2023-10-20T06:13:44.811Z,96622.78
2023-10-20T06:16:14.396Z,96625.41
2023-10-20T06:18:45.444Z,96634.28
2023-10-20T06:21:16.343Z,96629.13
2023-10-20T06:23:47.471Z,96609.91
2023-10-20T06:26:16.825Z,96610.81
2023-10-20T06:28:48.489Z,96588.94
2023-10-20T06:31:28.730Z,96604.78
2023-10-20T06:34:01.959Z,96596.13
2023-10-20T06:36:31.377Z,96596.13
2023-10-20T06:39:04.048Z,96600.59
2023-10-20T06:41:33.440Z,96596.25
2023-10-20T06:44:02.115Z,96610.44
2023-10-20T06:46:31.221Z,96603.41
2023-10-20T06:48:59.932Z,96602.63
2023-10-20T06:51:31.191Z,96597.34
2023-10-20T06:54:01.507Z,96593.78
2023-10-20T06:56:30.220Z,96597.34
2023-10-20T06:58:58.921Z,96596.56
2023-10-20T07:01:29.045Z,96607.97
2023-10-20T07:04:02.230Z,96604.50
2023-10-20T07:06:32.567Z,96598.38
2023-10-20T07:09:03.805Z,96608.03
2023-10-20T07:11:34.284Z,96595.72
2023-10-20T07:14:03.925Z,96591.38
2023-10-20T07:16:34.915Z,96583.47
2023-10-20T07:19:08.435Z,96595.81
2023-10-20T07:21:42.751Z,96597.59
2023-10-20T07:24:19.072Z,96582.63
2023-10-20T07:26:52.553Z,96579.13
2023-10-20T07:29:38.033Z,96584.41
2023-10-20T07:32:19.370Z,96587.88
2023-10-20T07:34:52.943Z,96587.88
2023-10-20T07:37:24.211Z,96578.28
2023-10-20T07:39:58.032Z,96575.66
2023-10-20T07:42:28.022Z,96568.66
2023-10-20T07:44:59.545Z,96567.72
2023-10-20T07:47:32.332Z,96573.91
2023-10-20T07:50:04.495Z,96562.53
2023-10-20T07:52:35.929Z,96568.66
2023-10-20T07:55:08.701Z,96570.38
2023-10-20T07:57:41.727Z,96567.72
2023-10-20T08:00:17.890Z,96570.38
2023-10-20T08:02:52.386Z,96575.66
2023-10-20T08:05:27.587Z,96566.00
2023-10-20T08:08:00.540Z,96563.38
2023-10-20T08:10:34.200Z,96574.75
2023-10-20T08:13:06.721Z,96577.41
2023-10-20T08:15:43.110Z,96573.00
2023-10-20T08:18:12.751Z,96570.38
2023-10-20T08:20:44.559Z,96570.38
2023-10-20T08:23:13.732Z,96569.41
2023-10-20T08:25:43.966Z,96573.84
2023-10-20T08:28:12.605Z,96581.84
2023-10-20T08:30:41.424Z,96575.66
2023-10-20T08:33:10.328Z,96590.59
2023-10-20T08:35:39.275Z,96587.03
2023-10-20T08:38:08.416Z,96592.31
2023-10-20T08:40:55.778Z,96587.88
2023-10-20T08:43:27.108Z,96601.06
2023-10-20T08:45:57.070Z,96595.81
2023-10-20T08:48:26.191Z,96604.56
2023-10-20T08:50:57.376Z,96597.50
2023-10-20T08:53:28.698Z,96601.00
2023-10-20T08:55:58.043Z,96601.00
2023-10-20T08:58:29.402Z,96593.94
2023-10-20T09:00:59.810Z,96588.66
2023-10-20T09:03:30.049Z,96595.63
2023-10-20T09:06:06.563Z,96592.22
2023-10-20T09:08:35.844Z,96603.53
2023-10-20T09:11:07.890Z,96603.53
2023-10-20T09:13:41.074Z,96595.63
2023-10-20T09:16:11.629Z,96595.63
2023-10-20T09:18:44.892Z,96596.47
2023-10-20T09:21:16.873Z,96600.00
2023-10-20T09:23:56.900Z,96594.72
2023-10-20T09:26:28.695Z,96603.41
2023-10-20T09:28:59.618Z,96595.56
2023-10-20T09:31:30.177Z,96594.63
2023-10-20T09:33:59.256Z,96595.50
2023-10-20T09:36:31.046Z,96580.59
2023-10-20T09:39:01.083Z,96592.88
2023-10-20T09:41:31.497Z,96592.88
2023-10-20T09:44:07.160Z,96600.78
2023-10-20T09:46:46.965Z,96592.88
2023-10-20T09:49:17.468Z,96589.28
2023-10-20T09:51:46.841Z,96593.59
2023-10-20T09:54:16.611Z,96598.81
2023-10-20T09:56:49.580Z,96604.09
2023-10-20T09:59:22.223Z,96604.03
2023-10-20T10:01:51.371Z,96609.31
2023-10-20T10:04:28.242Z,96613.63
2023-10-20T10:06:57.909Z,96605.72
2023-10-20T10:09:36.834Z,96605.66
2023-10-20T10:12:10.057Z,96608.19
2023-10-20T10:14:40.533Z,96610.75
2023-10-20T10:17:12.776Z,96606.25
2023-10-20T10:19:52.718Z,96600.88
2023-10-20T10:22:27.756Z,96593.75
2023-10-20T10:24:57.487Z,96600.72
2023-10-20T10:27:28.608Z,96586.59
2023-10-20T10:30:01.632Z,96586.44
2023-10-20T10:32:33.730Z,96576.66
2023-10-20T10:35:05.343Z,96575.72
2023-10-20T10:37:35.685Z,96564.16
2023-10-20T10:40:10.089Z,96559.66
2023-10-20T10:42:40.736Z,96553.34
2023-10-20T10:45:22.837Z,96548.84
2023-10-20T10:47:53.291Z,96538.28
2023-10-20T10:50:23.327Z,96532.94
2023-10-20T10:52:52.995Z,96520.59
2023-10-20T10:55:22.733Z,96519.63
2023-10-20T10:57:52.281Z,96519.63
2023-10-20T11:00:23.097Z,96515.13
2023-10-20T11:02:52.517Z,96506.31
2023-10-20T11:05:22.703Z,96513.25
2023-10-20T11:08:03.680Z,96508.00
2023-10-20T11:10:36.157Z,96510.63
2023-10-20T11:13:08.550Z,96504.41
2023-10-20T11:15:39.693Z,96500.91
2023-10-20T11:18:11.825Z,96504.41
2023-10-20T11:20:42.743Z,96500.00
2023-10-20T11:23:13.616Z,96503.47
2023-10-20T11:25:43.763Z,96487.53
2023-10-20T11:28:12.737Z,96474.28
2023-10-20T11:30:46.438Z,96472.41
2023-10-20T11:33:17.491Z,96455.72
2023-10-20T11:35:46.742Z,96456.56
2023-10-20T11:38:17.497Z,96450.34
2023-10-20T11:40:50.835Z,96451.28
2023-10-20T11:43:19.850Z,96446.00
2023-10-20T11:45:49.874Z,96441.75
2023-10-20T11:48:18.796Z,96444.38
2023-10-20T11:50:47.949Z,96438.34
2023-10-20T11:53:17.854Z,96435.63
2023-10-20T11:55:46.491Z,96438.41
2023-10-20T11:58:17.540Z,96440.22
2023-10-20T12:00:46.593Z,96434.16
2023-10-20T12:03:17.132Z,96431.63
2023-10-20T12:05:47.798Z,96443.94
2023-10-20T12:08:17.951Z,96434.41
2023-10-20T12:10:46.920Z,96425.66
2023-10-20T12:13:15.805Z,96436.31
2023-10-20T12:15:44.570Z,96434.59
2023-10-20T12:18:13.280Z,96432.06
2023-10-20T12:20:43.639Z,96423.25
2023-10-20T12:23:12.310Z,96425.91
2023-10-20T12:25:40.908Z,96417.25
2023-10-20T12:28:10.217Z,96414.59
2023-10-20T12:30:38.970Z,96422.59
2023-10-20T12:33:07.865Z,96413.84
2023-10-20T12:35:37.209Z,96413.91
2023-10-20T12:38:07.965Z,96410.41
2023-10-20T12:40:36.664Z,96412.13
2023-10-20T12:43:12.311Z,96401.56
2023-10-20T12:45:42.859Z,96397.16
2023-10-20T12:48:11.734Z,96405.91
2023-10-20T12:50:40.625Z,96399.69
2023-10-20T12:53:10.611Z,96389.13
2023-10-20T12:55:39.280Z,96383.84
2023-10-20T12:58:07.943Z,96383.78
2023-10-20T13:00:36.823Z,96392.53
2023-10-20T13:03:06.255Z,96399.50
2023-10-20T13:05:35.445Z,96384.56
2023-10-20T13:08:04.998Z,96397.63
2023-10-20T13:10:35.130Z,96402.91
2023-10-20T13:13:03.879Z,96394.09
2023-10-20T13:15:33.031Z,96402.84
2023-10-20T13:18:01.736Z,96399.34
2023-10-20T13:20:31.057Z,96403.69
2023-10-20T13:22:59.491Z,96408.00
2023-10-20T13:25:28.583Z,96392.19
2023-10-20T13:28:00.482Z,96391.34
2023-10-20T13:30:29.259Z,96394.81
2023-10-20T13:32:57.855Z,96392.94
2023-10-20T13:35:26.939Z,96385.97
2023-10-20T13:37:55.658Z,96388.63
2023-10-20T13:40:24.514Z,96388.63
2023-10-20T13:42:53.142Z,96392.19
2023-10-20T13:45:23.251Z,96381.63
2023-10-20T13:47:52.227Z,96371.06
2023-10-20T13:50:21.165Z,96373.72
2023-10-20T13:52:50.073Z,96394.81
2023-10-20T13:55:18.942Z,96415.19
2023-10-20T13:57:48.980Z,96409.91
2023-10-20T14:00:19.531Z,96413.47
2023-10-20T14:02:49.562Z,96427.63
2023-10-20T14:05:24.593Z,96417.97
2023-10-20T14:07:53.141Z,96419.78
2023-10-20T14:10:22.149Z,96427.69
2023-10-20T14:12:51.477Z,96429.50
2023-10-20T14:15:20.483Z,96435.59
2023-10-20T14:17:51.084Z,96446.16
2023-10-20T14:20:22.165Z,96454.00
2023-10-20T14:22:51.531Z,96464.56
2023-10-20T14:25:23.353Z,96476.03
2023-10-20T14:28:01.047Z,96490.97
2023-10-20T14:30:39.007Z,96502.44
2023-10-20T14:33:14.966Z,96490.19
2023-10-20T14:35:49.744Z,96497.25
2023-10-20T14:38:21.590Z,96495.53
2023-10-20T14:41:03.393Z,96508.84
2023-10-20T14:43:33.770Z,96528.22
2023-10-20T14:46:05.549Z,96528.31
2023-10-20T14:48:39.921Z,96532.75
2023-10-20T14:51:11.934Z,96530.25
2023-10-20T14:53:43.114Z,96552.31
2023-10-20T14:56:20.567Z,96567.44
2023-10-20T14:58:56.556Z,96561.41
2023-10-20T15:01:35.259Z,96572.03
2023-10-20T15:04:22.116Z,96579.16
2023-10-20T15:07:02.936Z,96582.81
2023-10-20T15:09:39.317Z,96596.13
2023-10-20T15:12:11.414Z,96597.97
2023-10-20T15:14:44.025Z,96605.94
2023-10-20T15:17:26.380Z,96618.28
2023-10-20T15:20:02.528Z,96626.38
2023-10-20T15:22:35.960Z,96638.00
2023-10-20T15:25:11.991Z,96611.78
2023-10-20T15:27:45.492Z,96630.41
2023-10-20T15:30:17.834Z,96628.84
2023-10-20T15:32:51.662Z,96638.63
2023-10-20T15:35:24.917Z,96652.81
2023-10-20T15:37:57.013Z,96652.97
2023-10-20T15:40:29.796Z,96660.06
2023-10-20T15:43:01.627Z,96655.88
2023-10-20T15:45:31.894Z,96652.38
2023-10-20T15:48:05.549Z,96648.13
2023-10-20T15:50:49.071Z,96661.41
2023-10-20T15:53:22.136Z,96673.78
2023-10-20T15:56:00.016Z,96674.69
2023-10-20T15:58:38.089Z,96673.06
2023-10-20T16:01:16.020Z,96681.06
2023-10-20T16:03:51.131Z,96681.06
2023-10-20T16:06:23.098Z,96680.22
2023-10-20T16:08:57.858Z,96683.78
2023-10-20T16:11:30.108Z,96685.56
2023-10-20T16:14:06.146Z,96691.69
2023-10-20T16:16:40.054Z,96691.84
2023-10-20T16:19:12.047Z,96699.75
2023-10-20T16:21:48.089Z,96697.94
2023-10-20T16:24:20.330Z,96705.00
2023-10-20T16:26:53.014Z,96709.44
2023-10-20T16:29:25.324Z,96712.13
2023-10-20T16:31:56.981Z,96712.13
2023-10-20T16:34:27.717Z,96715.72
2023-10-20T16:37:03.392Z,96721.03
2023-10-20T16:39:33.648Z,96722.84
2023-10-20T16:42:05.268Z,96732.53
2023-10-20T16:44:36.094Z,96723.84
2023-10-20T16:47:07.887Z,96727.38
2023-10-20T16:49:41.340Z,96736.22
2023-10-20T16:52:15.398Z,96741.56
2023-10-20T16:54:52.798Z,96750.41
2023-10-20T16:57:23.635Z,96746.06
2023-10-20T16:59:55.474Z,96753.97
2023-10-20T17:02:26.447Z,96761.00
2023-10-20T17:04:57.126Z,96763.72
2023-10-20T17:07:29.720Z,96769.84
2023-10-20T17:10:00.740Z,96775.13
2023-10-20T17:12:54.584Z,96777.81
2023-10-20T17:15:23.799Z,96771.69
2023-10-20T17:17:55.447Z,96770.00
2023-10-20T17:20:26.400Z,96775.28
2023-10-20T17:22:59.575Z,96781.38
2023-10-20T17:25:31.348Z,96788.44
2023-10-20T17:28:02.006Z,96795.47
2023-10-20T17:30:32.312Z,96792.84
2023-10-20T17:33:01.876Z,96787.56
2023-10-20T17:35:34.764Z,96783.22
2023-10-20T17:38:08.312Z,96795.47
2023-10-20T17:40:41.590Z,96793.72
2023-10-20T17:43:14.678Z,96798.97
2023-10-20T17:45:44.932Z,96815.69
2023-10-20T17:48:14.791Z,96814.84
2023-10-20T17:50:51.310Z,96817.53
2023-10-20T17:53:24.152Z,96824.69
2023-10-20T17:55:56.140Z,96829.97
2023-10-20T17:58:27.485Z,96831.81
2023-10-20T18:00:57.347Z,96832.72
2023-10-20T18:03:27.828Z,96842.50
2023-10-20T18:06:04.720Z,96842.59
2023-10-20T18:08:42.380Z,96844.38
2023-10-20T18:11:16.011Z,96842.75
2023-10-20T18:13:48.221Z,96850.66
2023-10-20T18:16:19.577Z,96838.41
2023-10-20T18:18:50.136Z,96845.47
2023-10-20T18:21:20.409Z,96860.41
2023-10-20T18:23:52.708Z,96856.97
2023-10-20T18:26:25.109Z,96860.53
2023-10-20T18:28:55.482Z,96857.09
2023-10-20T18:31:26.436Z,96851.84
2023-10-20T18:33:58.527Z,96865.94
2023-10-20T18:36:28.769Z,96861.59
2023-10-20T18:39:00.344Z,96870.47
2023-10-20T18:41:31.393Z,96880.16
2023-10-20T18:44:01.245Z,96875.03
2023-10-20T18:46:32.507Z,96872.47
2023-10-20T18:49:03.657Z,96876.06
2023-10-20T18:51:38.690Z,96877.00
2023-10-20T18:54:11.169Z,96880.63
2023-10-20T18:56:42.336Z,96880.78
2023-10-20T18:59:14.208Z,96876.50
2023-10-20T19:01:46.243Z,96888.78
2023-10-20T19:04:16.411Z,96885.38
2023-10-20T19:06:49.304Z,96889.78
2023-10-20T19:09:23.709Z,96887.22
2023-10-20T19:11:56.131Z,96890.75
2023-10-20T19:14:28.070Z,96897.00
2023-10-20T19:16:58.649Z,96897.94
2023-10-20T19:19:29.128Z,96898.88
2023-10-20T19:22:01.040Z,96905.13
2023-10-20T19:25:14.592Z,96893.81
2023-10-20T19:27:47.701Z,96892.91
2023-10-20T19:30:19.014Z,96908.84
2023-10-20T19:32:53.618Z,96908.94
2023-10-20T19:35:26.245Z,96918.59
2023-10-20T19:37:58.245Z,96924.78
2023-10-20T19:40:29.241Z,96929.25
2023-10-20T19:43:07.043Z,96933.66
2023-10-20T19:45:38.481Z,96931.97
2023-10-20T19:48:10.114Z,96930.22
2023-10-20T19:50:42.823Z,96934.66
2023-10-20T19:53:12.021Z,96936.44
2023-10-20T19:55:44.480Z,96938.22
2023-10-20T19:58:15.573Z,96948.72
2023-10-20T20:00:45.718Z,96947.00
2023-10-20T20:03:16.527Z,96948.84
2023-10-20T20:05:46.263Z,96955.03
2023-10-20T20:08:15.910Z,96952.41
2023-10-20T20:10:45.355Z,96952.41
2023-10-20T20:13:15.967Z,96950.66
2023-10-20T20:15:45.174Z,96955.94
2023-10-20T20:18:15.034Z,96959.47
2023-10-20T20:20:44.376Z,96961.28
2023-10-20T20:23:14.211Z,96966.56
2023-10-20T20:25:43.186Z,96963.13
2023-10-20T20:28:14.289Z,96965.75
2023-10-20T20:30:46.052Z,96971.09
2023-10-20T20:33:17.962Z,96972.00
2023-10-20T20:35:47.577Z,96977.34
2023-10-20T20:38:17.648Z,96976.53
2023-10-20T20:40:46.720Z,96977.47
2023-10-20T20:43:17.087Z,96988.91
2023-10-20T20:45:56.436Z,96985.47
2023-10-20T20:48:26.768Z,96984.69
2023-10-20T20:50:56.451Z,96991.78
2023-10-20T20:53:26.317Z,96984.78
2023-10-20T20:55:56.128Z,96992.69
2023-10-20T20:58:29.011Z,96991.81
2023-10-20T21:01:01.481Z,96997.94
2023-10-20T21:03:30.707Z,96998.88
2023-10-20T21:06:00.452Z,97001.50
2023-10-20T21:08:29.535Z,97009.41
2023-10-20T21:11:07.309Z,97002.41
2023-10-20T21:13:36.599Z,97002.41
2023-10-20T21:16:08.924Z,96999.75
2023-10-20T21:18:38.557Z,97006.81
2023-10-20T21:21:12.019Z,97008.59
2023-10-20T21:23:41.764Z,97003.31
2023-10-20T21:26:10.796Z,97007.75
2023-10-20T21:28:40.511Z,97008.72
2023-10-20T21:31:11.934Z,97013.91
2023-10-20T21:33:41.066Z,97016.59
2023-10-20T21:36:15.708Z,97007.91
2023-10-20T21:38:44.905Z,97012.31
2023-10-20T21:41:13.748Z,97015.00
2023-10-20T21:43:43.097Z,97013.28
2023-10-20T21:46:14.541Z,97009.88
2023-10-20T21:48:43.635Z,97006.31
2023-10-20T21:51:12.796Z,97008.94
2023-10-20T21:53:41.739Z,97011.69
2023-10-20T21:56:11.497Z,97019.56
2023-10-20T21:58:42.557Z,97016.94
2023-10-20T22:01:13.460Z,97020.50
2023-10-20T22:03:43.613Z,97014.41
2023-10-20T22:06:12.566Z,97015.25
2023-10-20T22:08:41.575Z,97021.34
2023-10-20T22:11:10.336Z,97023.13
2023-10-20T22:13:39.531Z,97024.03
2023-10-20T22:16:08.697Z,97024.03
2023-10-20T22:18:39.072Z,97032.00
2023-10-20T22:21:08.051Z,97036.41
2023-10-20T22:23:36.896Z,97033.78
2023-10-20T22:26:05.693Z,97035.59
2023-10-20T22:28:36.862Z,97038.22
2023-10-20T22:31:10.415Z,97041.75
2023-10-20T22:33:41.607Z,97043.59
2023-10-20T22:36:11.066Z,97032.22
2023-10-20T22:38:40.496Z,97040.06
2023-10-20T22:41:09.392Z,97036.63
2023-10-20T22:43:38.254Z,97030.50
2023-10-20T22:46:07.343Z,97033.13
2023-10-20T22:48:37.777Z,97034.91
2023-10-20T22:51:09.084Z,97044.56
2023-10-20T22:53:39.462Z,97033.19
2023-10-20T22:56:08.949Z,97043.78
2023-10-20T22:58:37.978Z,97049.94
2023-10-20T23:01:07.230Z,97045.53
2023-10-20T23:03:37.816Z,97051.72
2023-10-20T23:06:08.725Z,97055.28
2023-10-20T23:08:41.194Z,97055.28
2023-10-20T23:11:10.095Z,97057.09
2023-10-20T23:13:38.712Z,97050.06
2023-10-20T23:16:07.733Z,97051.84
2023-10-20T23:18:36.559Z,97053.63
2023-10-20T23:21:05.405Z,97058.00
2023-10-20T23:23:35.684Z,97067.66
2023-10-20T23:26:04.616Z,97058.00
2023-10-20T23:28:33.511Z,97060.69
2023-10-20T23:31:02.324Z,97061.53
2023-10-20T23:33:31.282Z,97065.09
2023-10-20T23:36:00.820Z,97074.72
2023-10-20T23:38:29.691Z,97069.56
2023-10-20T23:40:59.828Z,97073.88
2023-10-20T23:43:28.561Z,97067.78
2023-10-20T23:45:57.465Z,97068.69
2023-10-20T23:48:26.546Z,97075.66
2023-10-20T23:50:55.729Z,97082.69
2023-10-20T23:53:24.624Z,97074.00
2023-10-20T23:55:53.661Z,97075.72
2023-10-20T23:58:23.925Z,97085.38
